AMU131 ZSAM-VMMC
Flight info
| Callsign | AMU131 |
|---|---|
| Flight time | 1h 2m |
| Altitude | 36100 |
| Route | NUSPA9Z NUSPA W597 IKATA A470 BEBEM/N0453F361 A470 DOTMI/N0452F360 DCT SAMMI J101 SMT |
| Aircraft | A321/M-SDE3FGHIRWY/LB1 |
Departure
| Time | 2026-05-08 16:27 |
|---|---|
| Airport | Xiamen Gaoqi International Airport (ZSAM) |
Arrival
| Time | 2026-05-08 17:30 |
|---|---|
| Airport | Macau International Airport (VMMC) |
| Time | Latitude | Longitude | Altitude | Speed | Heading |
|---|---|---|---|---|---|
| 2026-05-08 16:13 | 24.54027 | 118.12904 | 55 ft | 0 kts | 143° |
| 2026-05-08 16:16 | 24.54040 | 118.12893 | 50 ft | 4 kts | 146° |
| 2026-05-08 16:17 | 24.54062 | 118.12878 | 48 ft | 4 kts | 152° |
| 2026-05-08 16:17 | 24.54078 | 118.12871 | 49 ft | 4 kts | 185° |
| 2026-05-08 16:17 | 24.54107 | 118.12888 | 49 ft | 4 kts | 230° |
| 2026-05-08 16:17 | 24.54120 | 118.12906 | 49 ft | 0 kts | 233° |
| 2026-05-08 16:19 | 24.54118 | 118.12904 | 49 ft | 1 kts | 233° |
| 2026-05-08 16:19 | 24.54106 | 118.12886 | 49 ft | 6 kts | 233° |
| 2026-05-08 16:20 | 24.54080 | 118.12847 | 52 ft | 7 kts | 233° |
| 2026-05-08 16:20 | 24.54046 | 118.12798 | 56 ft | 9 kts | 233° |
| 2026-05-08 16:20 | 24.54006 | 118.12740 | 48 ft | 10 kts | 232° |
| 2026-05-08 16:20 | 24.53959 | 118.12673 | 51 ft | 12 kts | 232° |
| 2026-05-08 16:21 | 24.53904 | 118.12597 | 52 ft | 13 kts | 232° |
| 2026-05-08 16:21 | 24.53843 | 118.12512 | 52 ft | 15 kts | 232° |
| 2026-05-08 16:21 | 24.53777 | 118.12419 | 55 ft | 16 kts | 232° |
| 2026-05-08 16:21 | 24.53705 | 118.12318 | 55 ft | 15 kts | 232° |
| 2026-05-08 16:22 | 24.53707 | 118.12251 | 54 ft | 10 kts | 319° |
| 2026-05-08 16:22 | 24.53765 | 118.12200 | 56 ft | 12 kts | 321° |
| 2026-05-08 16:22 | 24.53762 | 118.12150 | 60 ft | 6 kts | 244° |
| 2026-05-08 16:22 | 24.53738 | 118.12110 | 58 ft | 7 kts | 232° |
| 2026-05-08 16:23 | 24.53703 | 118.12063 | 55 ft | 9 kts | 231° |
| 2026-05-08 16:23 | 24.53662 | 118.12005 | 57 ft | 10 kts | 233° |
| 2026-05-08 16:23 | 24.53615 | 118.11939 | 59 ft | 12 kts | 230° |
| 2026-05-08 16:23 | 24.53579 | 118.11890 | 62 ft | 13 kts | 232° |
| 2026-05-08 16:24 | 24.53501 | 118.11780 | 57 ft | 15 kts | 231° |
| 2026-05-08 16:24 | 24.53434 | 118.11688 | 55 ft | 16 kts | 233° |
| 2026-05-08 16:24 | 24.53401 | 118.11575 | 65 ft | 16 kts | 280° |
| 2026-05-08 16:24 | 24.53447 | 118.11482 | 61 ft | 13 kts | 329° |
| 2026-05-08 16:25 | 24.53509 | 118.11504 | 64 ft | 0 kts | 49° |
| 2026-05-08 16:26 | 24.53536 | 118.11542 | 58 ft | 22 kts | 53° |
| 2026-05-08 16:26 | 24.53798 | 118.11920 | 58 ft | 100 kts | 52° |
| 2026-05-08 16:26 | 24.54367 | 118.12707 | 57 ft | 160 kts | 51° |
| 2026-05-08 16:27 | 24.55088 | 118.13686 | 642 ft | 165 kts | 51° |
| 2026-05-08 16:27 | 24.55811 | 118.14652 | 1434 ft | 162 kts | 51° |
| 2026-05-08 16:27 | 24.56504 | 118.15629 | 2101 ft | 167 kts | 53° |
| 2026-05-08 16:27 | 24.57222 | 118.16649 | 2592 ft | 175 kts | 53° |
| 2026-05-08 16:28 | 24.57974 | 118.17717 | 3154 ft | 180 kts | 54° |
| 2026-05-08 16:28 | 24.58756 | 118.18826 | 3665 ft | 187 kts | 54° |
| 2026-05-08 16:28 | 24.59566 | 118.19973 | 4165 ft | 193 kts | 53° |
| 2026-05-08 16:28 | 24.60405 | 118.21154 | 4708 ft | 198 kts | 52° |
| 2026-05-08 16:29 | 24.61276 | 118.22366 | 5234 ft | 207 kts | 53° |
| 2026-05-08 16:29 | 24.61975 | 118.23785 | 5824 ft | 216 kts | 71° |
| 2026-05-08 16:29 | 24.62179 | 118.25455 | 6394 ft | 228 kts | 96° |
| 2026-05-08 16:29 | 24.61687 | 118.27137 | 6873 ft | 238 kts | 125° |
| 2026-05-08 16:30 | 24.60519 | 118.28349 | 7626 ft | 225 kts | 157° |
| 2026-05-08 16:30 | 24.59033 | 118.28871 | 8116 ft | 233 kts | 177° |
| 2026-05-08 16:30 | 24.57425 | 118.28795 | 8643 ft | 231 kts | 199° |
| 2026-05-08 16:30 | 24.56062 | 118.27921 | 9037 ft | 229 kts | 231° |
| 2026-05-08 16:31 | 24.55061 | 118.26510 | 9484 ft | 241 kts | 236° |
| 2026-05-08 16:31 | 24.54010 | 118.25007 | 9928 ft | 255 kts | 234° |
| 2026-05-08 16:31 | 24.52900 | 118.23415 | 10326 ft | 268 kts | 236° |
| 2026-05-08 16:31 | 24.51741 | 118.21748 | 10724 ft | 281 kts | 234° |
| 2026-05-08 16:32 | 24.50524 | 118.20076 | 11118 ft | 286 kts | 234° |
| 2026-05-08 16:32 | 24.49278 | 118.18364 | 11518 ft | 288 kts | 234° |
| 2026-05-08 16:32 | 24.48031 | 118.16637 | 11925 ft | 289 kts | 234° |
| 2026-05-08 16:32 | 24.46784 | 118.14894 | 12337 ft | 291 kts | 234° |
| 2026-05-08 16:33 | 24.45537 | 118.13141 | 12754 ft | 292 kts | 234° |
| 2026-05-08 16:33 | 24.44284 | 118.11377 | 13170 ft | 294 kts | 235° |
| 2026-05-08 16:33 | 24.43022 | 118.09600 | 13609 ft | 295 kts | 235° |
| 2026-05-08 16:33 | 24.41762 | 118.07827 | 14019 ft | 296 kts | 235° |
| 2026-05-08 16:34 | 24.40489 | 118.06037 | 14414 ft | 297 kts | 235° |
| 2026-05-08 16:34 | 24.39220 | 118.04251 | 14799 ft | 298 kts | 235° |
| 2026-05-08 16:34 | 24.37958 | 118.02479 | 15191 ft | 299 kts | 235° |
| 2026-05-08 16:34 | 24.36657 | 118.00653 | 15580 ft | 302 kts | 234° |
| 2026-05-08 16:35 | 24.35358 | 117.98832 | 15984 ft | 304 kts | 234° |
| 2026-05-08 16:35 | 24.34068 | 117.97020 | 16390 ft | 306 kts | 234° |
| 2026-05-08 16:35 | 24.33182 | 117.95774 | 16667 ft | 308 kts | 234° |
| 2026-05-08 16:35 | 24.31430 | 117.93309 | 17234 ft | 310 kts | 234° |
| 2026-05-08 16:36 | 24.30101 | 117.91440 | 17659 ft | 312 kts | 234° |
| 2026-05-08 16:36 | 24.28759 | 117.89555 | 18085 ft | 314 kts | 234° |
| 2026-05-08 16:36 | 24.27410 | 117.87662 | 18498 ft | 316 kts | 234° |
| 2026-05-08 16:36 | 24.26048 | 117.85756 | 18879 ft | 318 kts | 234° |
| 2026-05-08 16:37 | 24.24655 | 117.83867 | 19259 ft | 321 kts | 230° |
| 2026-05-08 16:37 | 24.23064 | 117.82122 | 19645 ft | 324 kts | 227° |
| 2026-05-08 16:37 | 24.21452 | 117.80394 | 20035 ft | 325 kts | 227° |
| 2026-05-08 16:37 | 24.19829 | 117.78654 | 20431 ft | 327 kts | 228° |
| 2026-05-08 16:38 | 24.18197 | 117.76903 | 20838 ft | 329 kts | 228° |
| 2026-05-08 16:38 | 24.16559 | 117.75147 | 21241 ft | 331 kts | 229° |
| 2026-05-08 16:38 | 24.14905 | 117.73371 | 21643 ft | 334 kts | 228° |
| 2026-05-08 16:38 | 24.13804 | 117.72188 | 21919 ft | 336 kts | 228° |
| 2026-05-08 16:39 | 24.11553 | 117.69774 | 22493 ft | 340 kts | 228° |
| 2026-05-08 16:39 | 24.09879 | 117.67980 | 22919 ft | 342 kts | 229° |
| 2026-05-08 16:39 | 24.08729 | 117.66748 | 23213 ft | 344 kts | 229° |
| 2026-05-08 16:39 | 24.07013 | 117.64910 | 23653 ft | 346 kts | 229° |
| 2026-05-08 16:40 | 24.04723 | 117.62456 | 24144 ft | 349 kts | 229° |
| 2026-05-08 16:40 | 24.02983 | 117.60591 | 24517 ft | 351 kts | 229° |
| 2026-05-08 16:40 | 24.01804 | 117.59327 | 24775 ft | 352 kts | 229° |
| 2026-05-08 16:40 | 24.00050 | 117.57450 | 25156 ft | 353 kts | 229° |
| 2026-05-08 16:41 | 23.98312 | 117.55593 | 25540 ft | 355 kts | 229° |
| 2026-05-08 16:41 | 23.96546 | 117.53703 | 25919 ft | 356 kts | 229° |
| 2026-05-08 16:41 | 23.94777 | 117.51806 | 26315 ft | 356 kts | 229° |
| 2026-05-08 16:42 | 23.91220 | 117.47986 | 26917 ft | 365 kts | 229° |
| 2026-05-08 16:42 | 23.89386 | 117.46015 | 27050 ft | 374 kts | 229° |
| 2026-05-08 16:42 | 23.87502 | 117.43996 | 27176 ft | 384 kts | 229° |
| 2026-05-08 16:42 | 23.85674 | 117.41843 | 27289 ft | 389 kts | 236° |
| 2026-05-08 16:43 | 23.84168 | 117.39370 | 27413 ft | 393 kts | 245° |
| 2026-05-08 16:43 | 23.83052 | 117.36632 | 27538 ft | 397 kts | 254° |
| 2026-05-08 16:43 | 23.82226 | 117.33728 | 27658 ft | 404 kts | 255° |
| 2026-05-08 16:43 | 23.81397 | 117.30776 | 27891 ft | 409 kts | 255° |
| 2026-05-08 16:44 | 23.80554 | 117.27798 | 28203 ft | 411 kts | 255° |
| 2026-05-08 16:44 | 23.79701 | 117.24811 | 28527 ft | 413 kts | 255° |
| 2026-05-08 16:44 | 23.78839 | 117.21807 | 28818 ft | 415 kts | 255° |
| 2026-05-08 16:44 | 23.77985 | 117.18825 | 29151 ft | 417 kts | 255° |
| 2026-05-08 16:45 | 23.77036 | 117.15824 | 29464 ft | 421 kts | 249° |
| 2026-05-08 16:45 | 23.75614 | 117.12963 | 29759 ft | 427 kts | 239° |
| 2026-05-08 16:45 | 23.73755 | 117.10458 | 30042 ft | 434 kts | 230° |
| 2026-05-08 16:45 | 23.71629 | 117.08047 | 30312 ft | 436 kts | 230° |
| 2026-05-08 16:46 | 23.69522 | 117.05659 | 30511 ft | 438 kts | 231° |
| 2026-05-08 16:46 | 23.67431 | 117.03285 | 30740 ft | 440 kts | 231° |
| 2026-05-08 16:46 | 23.65309 | 117.00871 | 30983 ft | 442 kts | 231° |
| 2026-05-08 16:46 | 23.63179 | 116.98450 | 31231 ft | 444 kts | 231° |
| 2026-05-08 16:47 | 23.61037 | 116.96013 | 31490 ft | 446 kts | 231° |
| 2026-05-08 16:47 | 23.58886 | 116.93564 | 31760 ft | 447 kts | 231° |
| 2026-05-08 16:47 | 23.56737 | 116.91120 | 32115 ft | 446 kts | 231° |
| 2026-05-08 16:47 | 23.54593 | 116.88682 | 32460 ft | 445 kts | 231° |
| 2026-05-08 16:48 | 23.52451 | 116.86249 | 32817 ft | 445 kts | 231° |
| 2026-05-08 16:48 | 23.50305 | 116.83820 | 33149 ft | 444 kts | 232° |
| 2026-05-08 16:48 | 23.48165 | 116.81396 | 33496 ft | 444 kts | 232° |
| 2026-05-08 16:48 | 23.46022 | 116.78967 | 33796 ft | 444 kts | 232° |
| 2026-05-08 16:49 | 23.43827 | 116.76579 | 34086 ft | 448 kts | 226° |
| 2026-05-08 16:49 | 23.41370 | 116.74460 | 34357 ft | 451 kts | 223° |
| 2026-05-08 16:49 | 23.38879 | 116.72390 | 34653 ft | 451 kts | 223° |
| 2026-05-08 16:49 | 23.36384 | 116.70326 | 34962 ft | 450 kts | 223° |
| 2026-05-08 16:50 | 23.33896 | 116.68269 | 35270 ft | 449 kts | 223° |
| 2026-05-08 16:50 | 23.31409 | 116.66210 | 35584 ft | 448 kts | 223° |
| 2026-05-08 16:50 | 23.28935 | 116.64157 | 35890 ft | 447 kts | 223° |
| 2026-05-08 16:50 | 23.26466 | 116.62105 | 36114 ft | 447 kts | 223° |
| 2026-05-08 16:51 | 23.24004 | 116.60058 | 36165 ft | 443 kts | 223° |
| 2026-05-08 16:51 | 23.19119 | 116.56006 | 36163 ft | 441 kts | 223° |
| 2026-05-08 16:52 | 23.14274 | 116.51986 | 36162 ft | 440 kts | 223° |
| 2026-05-08 16:52 | 23.09388 | 116.47941 | 36155 ft | 442 kts | 223° |
| 2026-05-08 16:53 | 23.02064 | 116.41892 | 36160 ft | 440 kts | 223° |
| 2026-05-08 16:53 | 22.97191 | 116.37867 | 36152 ft | 440 kts | 223° |
| 2026-05-08 16:54 | 22.92315 | 116.33830 | 36155 ft | 441 kts | 223° |
| 2026-05-08 16:54 | 22.87442 | 116.29780 | 36164 ft | 441 kts | 223° |
| 2026-05-08 16:55 | 22.82564 | 116.25734 | 36171 ft | 442 kts | 223° |
| 2026-05-08 16:55 | 22.77685 | 116.21690 | 36175 ft | 442 kts | 223° |
| 2026-05-08 16:56 | 22.72829 | 116.17665 | 36167 ft | 442 kts | 223° |
| 2026-05-08 16:56 | 22.67941 | 116.13619 | 36162 ft | 442 kts | 223° |
| 2026-05-08 16:57 | 22.63032 | 116.09594 | 36165 ft | 443 kts | 223° |
| 2026-05-08 16:57 | 22.58111 | 116.05566 | 36163 ft | 443 kts | 223° |
| 2026-05-08 16:58 | 22.53201 | 116.01533 | 36164 ft | 443 kts | 223° |
| 2026-05-08 16:58 | 22.48945 | 115.96905 | 36162 ft | 428 kts | 242° |
| 2026-05-08 16:59 | 22.46599 | 115.91176 | 36149 ft | 415 kts | 261° |
| 2026-05-08 16:59 | 22.45995 | 115.84986 | 36149 ft | 411 kts | 269° |
| 2026-05-08 17:00 | 22.45643 | 115.78802 | 36154 ft | 412 kts | 269° |
| 2026-05-08 17:00 | 22.45271 | 115.72644 | 36159 ft | 413 kts | 269° |
| 2026-05-08 17:01 | 22.44881 | 115.66444 | 36156 ft | 413 kts | 269° |
| 2026-05-08 17:01 | 22.44499 | 115.60234 | 36156 ft | 413 kts | 269° |
| 2026-05-08 17:02 | 22.44117 | 115.54036 | 36157 ft | 413 kts | 269° |
| 2026-05-08 17:02 | 22.43737 | 115.47836 | 36158 ft | 414 kts | 269° |
| 2026-05-08 17:03 | 22.43354 | 115.41660 | 36158 ft | 414 kts | 269° |
| 2026-05-08 17:03 | 22.42963 | 115.35444 | 36152 ft | 413 kts | 269° |
| 2026-05-08 17:04 | 22.42575 | 115.29242 | 36151 ft | 414 kts | 269° |
| 2026-05-08 17:04 | 22.42184 | 115.23042 | 36149 ft | 413 kts | 269° |
| 2026-05-08 17:05 | 22.41794 | 115.16836 | 36147 ft | 413 kts | 269° |
| 2026-05-08 17:05 | 22.41393 | 115.10642 | 36147 ft | 413 kts | 269° |
| 2026-05-08 17:06 | 22.40996 | 115.04439 | 36147 ft | 413 kts | 269° |
| 2026-05-08 17:06 | 22.40597 | 114.98244 | 35126 ft | 422 kts | 268° |
| 2026-05-08 17:07 | 22.40390 | 114.95071 | 34424 ft | 423 kts | 268° |
| 2026-05-08 17:07 | 22.40185 | 114.91918 | 34005 ft | 419 kts | 268° |
| 2026-05-08 17:07 | 22.39977 | 114.88777 | 33501 ft | 416 kts | 268° |
| 2026-05-08 17:07 | 22.39768 | 114.85674 | 33051 ft | 413 kts | 268° |
| 2026-05-08 17:08 | 22.39558 | 114.82583 | 32581 ft | 411 kts | 268° |
| 2026-05-08 17:08 | 22.39352 | 114.79513 | 32120 ft | 407 kts | 268° |
| 2026-05-08 17:08 | 22.39147 | 114.76476 | 31662 ft | 403 kts | 268° |
| 2026-05-08 17:08 | 22.38948 | 114.73468 | 31216 ft | 399 kts | 268° |
| 2026-05-08 17:09 | 22.38755 | 114.70494 | 30756 ft | 396 kts | 268° |
| 2026-05-08 17:09 | 22.38564 | 114.67536 | 30258 ft | 394 kts | 267° |
| 2026-05-08 17:09 | 22.38372 | 114.64584 | 29742 ft | 392 kts | 267° |
| 2026-05-08 17:09 | 22.38179 | 114.61703 | 29284 ft | 388 kts | 267° |
| 2026-05-08 17:10 | 22.37981 | 114.58808 | 28826 ft | 384 kts | 267° |
| 2026-05-08 17:10 | 22.37785 | 114.55939 | 28386 ft | 381 kts | 267° |
| 2026-05-08 17:10 | 22.37590 | 114.53095 | 27948 ft | 378 kts | 267° |
| 2026-05-08 17:10 | 22.37396 | 114.50270 | 27525 ft | 376 kts | 267° |
| 2026-05-08 17:11 | 22.37202 | 114.47459 | 27105 ft | 374 kts | 268° |
| 2026-05-08 17:11 | 22.37012 | 114.44663 | 26687 ft | 372 kts | 268° |
| 2026-05-08 17:11 | 22.36822 | 114.41872 | 26273 ft | 371 kts | 268° |
| 2026-05-08 17:11 | 22.36632 | 114.39105 | 25859 ft | 369 kts | 268° |
| 2026-05-08 17:12 | 22.36441 | 114.36346 | 25424 ft | 368 kts | 268° |
| 2026-05-08 17:12 | 22.36250 | 114.33591 | 25000 ft | 367 kts | 268° |
| 2026-05-08 17:12 | 22.36060 | 114.30843 | 24554 ft | 366 kts | 268° |
| 2026-05-08 17:12 | 22.35934 | 114.29026 | 24268 ft | 366 kts | 268° |
| 2026-05-08 17:13 | 22.35680 | 114.25365 | 23663 ft | 366 kts | 268° |
| 2026-05-08 17:13 | 22.35489 | 114.22647 | 23157 ft | 365 kts | 268° |
| 2026-05-08 17:13 | 22.35299 | 114.19920 | 22685 ft | 363 kts | 268° |
| 2026-05-08 17:13 | 22.35111 | 114.17225 | 22222 ft | 360 kts | 267° |
| 2026-05-08 17:14 | 22.34921 | 114.14535 | 21762 ft | 358 kts | 267° |
| 2026-05-08 17:14 | 22.34732 | 114.11858 | 21296 ft | 358 kts | 267° |
| 2026-05-08 17:14 | 22.34541 | 114.09174 | 20834 ft | 356 kts | 266° |
| 2026-05-08 17:14 | 22.34352 | 114.06515 | 20375 ft | 354 kts | 266° |
| 2026-05-08 17:15 | 22.34164 | 114.03871 | 19911 ft | 352 kts | 266° |
| 2026-05-08 17:15 | 22.33977 | 114.01232 | 19457 ft | 352 kts | 266° |
| 2026-05-08 17:15 | 22.33707 | 113.98590 | 19010 ft | 357 kts | 258° |
| 2026-05-08 17:15 | 22.32939 | 113.96033 | 18671 ft | 359 kts | 246° |
| 2026-05-08 17:16 | 22.31675 | 113.93791 | 18015 ft | 348 kts | 231° |
| 2026-05-08 17:16 | 22.29972 | 113.92044 | 17561 ft | 329 kts | 220° |
| 2026-05-08 17:16 | 22.28235 | 113.90541 | 17151 ft | 312 kts | 220° |
| 2026-05-08 17:16 | 22.26553 | 113.89086 | 16751 ft | 312 kts | 220° |
| 2026-05-08 17:17 | 22.24856 | 113.87618 | 16345 ft | 311 kts | 220° |
| 2026-05-08 17:17 | 22.23176 | 113.86165 | 15935 ft | 311 kts | 220° |
| 2026-05-08 17:17 | 22.21487 | 113.84704 | 15528 ft | 311 kts | 220° |
| 2026-05-08 17:17 | 22.19800 | 113.83243 | 15138 ft | 311 kts | 220° |
| 2026-05-08 17:18 | 22.18111 | 113.81783 | 14748 ft | 311 kts | 220° |
| 2026-05-08 17:18 | 22.16422 | 113.80326 | 14332 ft | 311 kts | 220° |
| 2026-05-08 17:18 | 22.14734 | 113.78870 | 13939 ft | 311 kts | 220° |
| 2026-05-08 17:18 | 22.13042 | 113.77409 | 13507 ft | 311 kts | 220° |
| 2026-05-08 17:19 | 22.11357 | 113.75957 | 13102 ft | 309 kts | 220° |
| 2026-05-08 17:19 | 22.09678 | 113.74509 | 12705 ft | 308 kts | 220° |
| 2026-05-08 17:19 | 22.08005 | 113.73068 | 12308 ft | 306 kts | 219° |
| 2026-05-08 17:19 | 22.06345 | 113.71638 | 11918 ft | 305 kts | 219° |
| 2026-05-08 17:20 | 22.04688 | 113.70212 | 11521 ft | 304 kts | 219° |
| 2026-05-08 17:20 | 22.03034 | 113.68792 | 11141 ft | 303 kts | 219° |
| 2026-05-08 17:20 | 22.01386 | 113.67373 | 10706 ft | 305 kts | 219° |
| 2026-05-08 17:20 | 21.99855 | 113.66042 | 10440 ft | 301 kts | 219° |
| 2026-05-08 17:21 | 21.98234 | 113.64625 | 10071 ft | 300 kts | 220° |
| 2026-05-08 17:21 | 21.96632 | 113.63222 | 9460 ft | 295 kts | 219° |
| 2026-05-08 17:21 | 21.95068 | 113.61854 | 8703 ft | 292 kts | 219° |
| 2026-05-08 17:21 | 21.93415 | 113.60617 | 8015 ft | 287 kts | 205° |
| 2026-05-08 17:22 | 21.91521 | 113.60011 | 7489 ft | 284 kts | 186° |
| 2026-05-08 17:22 | 21.89559 | 113.60105 | 6909 ft | 283 kts | 167° |
| 2026-05-08 17:22 | 21.87778 | 113.60933 | 6206 ft | 278 kts | 141° |
| 2026-05-08 17:22 | 21.86563 | 113.62499 | 5489 ft | 272 kts | 114° |
| 2026-05-08 17:23 | 21.86153 | 113.64445 | 4864 ft | 265 kts | 88° |
| 2026-05-08 17:23 | 21.86595 | 113.66342 | 4216 ft | 263 kts | 60° |
| 2026-05-08 17:23 | 21.87838 | 113.67748 | 3622 ft | 261 kts | 30° |
| 2026-05-08 17:23 | 21.89514 | 113.68227 | 3434 ft | 240 kts | 1° |
| 2026-05-08 17:24 | 21.91108 | 113.67904 | 3380 ft | 233 kts | 342° |
| 2026-05-08 17:24 | 21.92633 | 113.67341 | 3351 ft | 225 kts | 343° |
| 2026-05-08 17:24 | 21.93616 | 113.66977 | 3285 ft | 218 kts | 343° |
| 2026-05-08 17:24 | 21.95020 | 113.66462 | 3178 ft | 215 kts | 343° |
| 2026-05-08 17:25 | 21.96402 | 113.65955 | 3097 ft | 200 kts | 342° |
| 2026-05-08 17:25 | 21.97633 | 113.65502 | 3036 ft | 172 kts | 343° |
| 2026-05-08 17:25 | 21.98722 | 113.65102 | 2953 ft | 160 kts | 343° |
| 2026-05-08 17:25 | 21.99757 | 113.64723 | 2796 ft | 155 kts | 343° |
| 2026-05-08 17:26 | 22.00768 | 113.64352 | 2618 ft | 152 kts | 343° |
| 2026-05-08 17:26 | 22.01767 | 113.63985 | 2430 ft | 151 kts | 343° |
| 2026-05-08 17:26 | 22.02749 | 113.63625 | 2243 ft | 150 kts | 343° |
| 2026-05-08 17:26 | 22.03732 | 113.63264 | 2057 ft | 149 kts | 343° |
| 2026-05-08 17:27 | 22.04712 | 113.62903 | 1859 ft | 148 kts | 342° |
| 2026-05-08 17:27 | 22.05690 | 113.62544 | 1672 ft | 149 kts | 342° |
| 2026-05-08 17:27 | 22.06676 | 113.62183 | 1454 ft | 148 kts | 343° |
| 2026-05-08 17:27 | 22.07637 | 113.61828 | 1264 ft | 144 kts | 342° |
| 2026-05-08 17:28 | 22.08584 | 113.61480 | 1085 ft | 143 kts | 342° |
| 2026-05-08 17:28 | 22.09526 | 113.61133 | 907 ft | 142 kts | 342° |
| 2026-05-08 17:28 | 22.10462 | 113.60789 | 734 ft | 142 kts | 341° |
| 2026-05-08 17:28 | 22.11395 | 113.60446 | 566 ft | 141 kts | 339° |
| 2026-05-08 17:29 | 22.12319 | 113.60107 | 389 ft | 141 kts | 339° |
| 2026-05-08 17:29 | 22.13234 | 113.59773 | 182 ft | 141 kts | 339° |
| 2026-05-08 17:29 | 22.14152 | 113.59438 | 34 ft | 132 kts | 339° |
| 2026-05-08 17:29 | 22.14833 | 113.59181 | 28 ft | 53 kts | 341° |
| 2026-05-08 17:30 | 22.15109 | 113.59080 | 28 ft | 40 kts | 341° |
| 2026-05-08 17:30 | 22.15365 | 113.58987 | 28 ft | 39 kts | 341° |
| 2026-05-08 17:30 | 22.15627 | 113.58892 | 27 ft | 39 kts | 341° |
| 2026-05-08 17:30 | 22.15839 | 113.58816 | 28 ft | 22 kts | 343° |
| 2026-05-08 17:31 | 22.15986 | 113.58759 | 30 ft | 24 kts | 342° |
| 2026-05-08 17:31 | 22.16169 | 113.58691 | 29 ft | 31 kts | 339° |
| 2026-05-08 17:31 | 22.16208 | 113.58582 | 29 ft | 9 kts | 288° |
| 2026-05-08 17:31 | 22.16227 | 113.58487 | 29 ft | 17 kts | 280° |
| 2026-05-08 17:32 | 22.16255 | 113.58338 | 29 ft | 24 kts | 282° |
| 2026-05-08 17:32 | 22.16258 | 113.58319 | 29 ft | 18 kts | 278° |
| 2026-05-08 17:32 | 22.16233 | 113.58216 | 29 ft | 22 kts | 250° |
| 2026-05-08 17:32 | 22.16180 | 113.58054 | 29 ft | 26 kts | 250° |
| 2026-05-08 17:33 | 22.16126 | 113.57884 | 29 ft | 23 kts | 251° |
| 2026-05-08 17:33 | 22.16071 | 113.57764 | 29 ft | 13 kts | 219° |
| 2026-05-08 17:33 | 22.15990 | 113.57736 | 29 ft | 12 kts | 195° |
| 2026-05-08 17:33 | 22.15969 | 113.57730 | 29 ft | 0 kts | 195° |
| 2026-05-08 17:34 | 22.15943 | 113.57723 | 29 ft | 8 kts | 194° |
| 2026-05-08 17:35 | 22.15910 | 113.57715 | 29 ft | 0 kts | 192° |
| 2026-05-08 17:35 | 22.15905 | 113.57714 | 29 ft | 4 kts | 192° |
| 2026-05-08 17:35 | 22.15854 | 113.57699 | 29 ft | 11 kts | 196° |
| 2026-05-08 17:35 | 22.15762 | 113.57669 | 29 ft | 16 kts | 200° |
| 2026-05-08 17:36 | 22.15658 | 113.57604 | 29 ft | 11 kts | 218° |
| 2026-05-08 17:36 | 22.15596 | 113.57538 | 29 ft | 12 kts | 227° |
| 2026-05-08 17:36 | 22.15539 | 113.57439 | 29 ft | 12 kts | 243° |
| 2026-05-08 17:36 | 22.15573 | 113.57384 | 29 ft | 12 kts | 332° |
| 2026-05-08 17:37 | 22.15594 | 113.57372 | 29 ft | 0 kts | 332° |